Alsey, Illinois
Current Conditions -  °F | °C
As of 4:15 AM on Thursday 29 Jan 2015 (Local Time) from KIJX Reporting Station
Scattered Clouds Scattered Clouds  
Wind Chill: 38°   Ceiling: Unl
Heat Index: 45°   Visibility: 10mi
Dew Point: 38°   Wind: 17mph
Humidity: 74%   Direction: 280°W
Pressure: 29.77"   Gusts: 23mph
Location:  39.56°N, 90.43°W
Report Text: KIJX 291015Z AUTO 28015G20KT 10SM SCT025 07/03 A2977 RMK AO2 T00740031
Loading
Personal Weather Stations






























Interactive Weather Map New forecast layout! Learn more

10-Day Weather Forecast

Advertisements
Track Severe Weather on mobile